WetterOnline ( https://www.wetteronline.de )

Wetter aktuell Görlitz

Aktuelles Wetter: Görlitz (240m)

6-stündlich | Neueste Meldungen
Ortszeit Temperatur Wetter
Do, 02.12. 7:00 3.9° C bewölkt
Do, 02.12. 1:00 6.0° C Regen
Mi, 01.12. 19:00 6.5° C bedeckt
Mi, 01.12. 13:00 5.8° C bedeckt
Mi, 01.12. 7:00 2.8° C leichter Regen
Mi, 01.12. 1:00 2.5° C wolkig
Di, 30.11. 19:00 3.9° C Sprühregen
Di, 30.11. 13:00 2.8° C leichter Regen
Ortszeit Temperatur Wetter
Do, 02.12. 10:00 3.8° C bewölkt
Do, 02.12. 9:50 3.8° C bewölkt
Do, 02.12. 9:40 3.7° C wolkig
Do, 02.12. 9:30 3.4° C leicht bewölkt
Do, 02.12. 9:20 3.4° C leicht bewölkt
Do, 02.12. 9:10 3.3° C fast wolkenlos
Do, 02.12. 9:00 3.0° C wolkenlos
Do, 02.12. 8:30 3.1° C fast wolkenlos
Do, 02.12. 8:00 2.7° C leicht bewölkt
Do, 02.12. 7:30 3.7° C bewölkt
Do, 02.12. 7:00 3.9° C bewölkt
Ortszeit Relative Feuchte Sichtweite
Do, 02.12. 7:00 72% 65 km
Do, 02.12. 1:00 79% 4.8 km
Mi, 01.12. 19:00 84% >70 km
Mi, 01.12. 13:00 86% 65 km
Mi, 01.12. 7:00 93% 20 km
Mi, 01.12. 1:00 82% 35 km
Di, 30.11. 19:00 84% 30 km
Di, 30.11. 13:00 87% 30 km
Ortszeit Relative Feuchte Sichtweite
Do, 02.12. 10:00 69% 45 km
Do, 02.12. 9:50 69% -
Do, 02.12. 9:40 69% -
Do, 02.12. 9:30 69% 60 km
Do, 02.12. 9:20 69% -
Do, 02.12. 9:10 70% -
Do, 02.12. 9:00 71% 60 km
Do, 02.12. 8:30 73% 55 km
Do, 02.12. 8:00 77% >70 km
Do, 02.12. 7:30 72% >70 km
Do, 02.12. 7:00 72% 65 km
Ortszeit Niederschlagsmenge Niederschlagsart
Do, 02.12. 7:00 0.3 l/m2 in 12 Std. Regen
Do, 02.12. 1:00 0.1 l/m2 in 6 Std. Regen
Mi, 01.12. 19:00 3 l/m2 in 12 Std. Regen
Mi, 01.12. 13:00 3 l/m2 in 6 Std. Regen
Mi, 01.12. 7:00 0.7 l/m2 in 12 Std. Regen
Mi, 01.12. 1:00 0.3 l/m2 in 6 Std. Regen
Di, 30.11. 19:00 3 l/m2 in 12 Std. Schnee, Regen
Di, 30.11. 13:00 0.4 l/m2 in 6 Std. Schnee, Regen
Ortszeit Niederschlagsmenge Niederschlagsart
Do, 02.12. 10:00 0.0 l/m2 in 1 Std. -
Do, 02.12. 9:50 keine Meldung -
Do, 02.12. 9:40 keine Meldung -
Do, 02.12. 9:30 0.0 l/m2 in 1 Std. -
Do, 02.12. 9:20 keine Meldung -
Do, 02.12. 9:10 keine Meldung -
Do, 02.12. 9:00 0.0 l/m2 in 1 Std. -
Do, 02.12. 8:30 0.0 l/m2 in 1 Std. -
Do, 02.12. 8:00 0.0 l/m2 in 1 Std. -
Do, 02.12. 7:30 0.0 l/m2 in 1 Std. -
Do, 02.12. 7:00 0.0 l/m2 in 1 Std. Regen
Ortszeit Stärke Spitze Richtung
km/h Bft. km/h Grad Sektor
Do, 02.12. 7:00 28 4 52 260° W
Do, 02.12. 1:00 26 4 57 270° W
Mi, 01.12. 19:00 33 5 54 190° S
Mi, 01.12. 13:00 32 5 50 200° S
Mi, 01.12. 7:00 22 4 32 190° S
Mi, 01.12. 1:00 17 3 52 280° W
Di, 30.11. 19:00 31 5 76 280° W
Di, 30.11. 13:00 31 5 50 240° SW
Ortszeit Stärke Spitze Richtung
km/h Bft. km/h Grad Sektor
Do, 02.12. 10:00 28 4 44 260° W
Do, 02.12. 9:50 28 4 - 260° W
Do, 02.12. 9:40 28 4 - 250° W
Do, 02.12. 9:30 25 4 43 260° W
Do, 02.12. 9:20 25 4 - 260° W
Do, 02.12. 9:10 24 4 - 260° W
Do, 02.12. 9:00 25 4 47 260° W
Do, 02.12. 8:30 29 5 47 260° W
Do, 02.12. 8:00 22 4 43 250° W
Do, 02.12. 7:30 29 5 43 260° W
Do, 02.12. 7:00 28 4 44 260° W
Ortszeit Untergrenze Bedeckung Gattung
total tief tief mittel hoch
Do, 02.12. 7:00 810 m 7/8 7/8 - - -
Do, 02.12. 1:00 690 m 7/8 7/8 - - -
Mi, 01.12. 19:00 990 m 8/8 8/8 - - -
Mi, 01.12. 13:00 510 m 8/8 8/8 - - -
Mi, 01.12. 7:00 690 m 8/8 8/8 - - -
Mi, 01.12. 1:00 1080 m 7/8 1/8 - - -
Di, 30.11. 19:00 1080 m 7/8 7/8 - - -
Di, 30.11. 13:00 510 m 7/8 7/8 - - -
Ortszeit Bedeckungsgrad in Achtel und Wolkenuntergrenze
Do, 02.12. 10:00 7(1080m)
Do, 02.12. 9:50 7(1080m)
Do, 02.12. 9:40 6(1080m)
Do, 02.12. 9:30 2(1020m)
Do, 02.12. 9:20 2(1020m)
Do, 02.12. 9:10 1(1020m)
Do, 02.12. 9:00 keine Wolken
Do, 02.12. 8:30 1(1200m)
Do, 02.12. 8:00 2(1380m) 2(1380m)
Do, 02.12. 7:30 7(870m) 8(1440m) 7(1410m)
Do, 02.12. 7:00 7(810m) 7(990m)
Ortszeit Luftdruck NN (hPa) Tendenz (hPa in 3 Std.)
Do, 02.12. 7:00 995 + 1,2
Do, 02.12. 1:00 992 + 1,2
Mi, 01.12. 19:00 991 - 2,1
Mi, 01.12. 13:00 996 - 3,6
Mi, 01.12. 7:00 1002 - 2,7
Mi, 01.12. 1:00 1005 + 2,6
Di, 30.11. 19:00 998 + 1,7
Di, 30.11. 13:00 998 - 3,9
Ortszeit Luftdruck NN (hPa) Tendenz (hPa in 3 Std.)
Do, 02.12. 10:00 997 + 2,6
Do, 02.12. 9:50 997 keine Meldung
Do, 02.12. 9:40 997 keine Meldung
Do, 02.12. 9:30 997 + 2,3
Do, 02.12. 9:20 997 keine Meldung
Do, 02.12. 9:10 997 keine Meldung
Do, 02.12. 9:00 997 + 2,0
Do, 02.12. 8:30 996 + 1,6
Do, 02.12. 8:00 996 + 1,7
Do, 02.12. 7:30 995 + 1,8
Do, 02.12. 7:00 995 + 1,2
Ortszeit Schneehöhe (cm)
Do, 02.12. 7:00 0
Do, 02.12. 1:00 0
Mi, 01.12. 19:00 0
Mi, 01.12. 13:00 0
Mi, 01.12. 7:00 0
Mi, 01.12. 1:00 0
Di, 30.11. 19:00 0
Di, 30.11. 13:00 0
Ortszeit Schneehöhe (cm)
Do, 02.12. 10:00 0
Do, 02.12. 9:50 0
Do, 02.12. 9:40 0
Do, 02.12. 9:30 0
Do, 02.12. 9:20 0
Do, 02.12. 9:10 0
Do, 02.12. 9:00 0
Do, 02.12. 8:30 0
Do, 02.12. 8:00 0
Do, 02.12. 7:30 0
Do, 02.12. 7:00 0
Link zu dieser Seite / Seite empfehlen

Das Wetter in ...